sensor_id;sensor_type;location;lat;lon;timestamp;temperature;humidity
52731;DHT22;38624;53.242;6.974;2023-04-03T00:01:15;2.70;99.90
52731;DHT22;38624;53.242;6.974;2023-04-03T00:03:41;2.80;99.90
52731;DHT22;38624;53.242;6.974;2023-04-03T00:06:08;2.60;99.90
52731;DHT22;38624;53.242;6.974;2023-04-03T00:08:36;2.60;99.90
52731;DHT22;38624;53.242;6.974;2023-04-03T00:11:02;2.70;99.90
52731;DHT22;38624;53.242;6.974;2023-04-03T00:13:29;2.50;99.90
52731;DHT22;38624;53.242;6.974;2023-04-03T00:15:54;2.50;99.90
52731;DHT22;38624;53.242;6.974;2023-04-03T00:18:21;3.30;99.90
52731;DHT22;38624;53.242;6.974;2023-04-03T00:20:47;2.50;99.90
52731;DHT22;38624;53.242;6.974;2023-04-03T00:23:13;2.40;99.90
52731;DHT22;38624;53.242;6.974;2023-04-03T00:25:39;2.30;99.90
52731;DHT22;38624;53.242;6.974;2023-04-03T00:28:05;2.30;99.90
52731;DHT22;38624;53.242;6.974;2023-04-03T00:30:31;2.90;99.90
52731;DHT22;38624;53.242;6.974;2023-04-03T00:32:57;3.40;99.90
52731;DHT22;38624;53.242;6.974;2023-04-03T00:35:23;2.70;99.90
52731;DHT22;38624;53.242;6.974;2023-04-03T00:37:53;2.20;99.90
52731;DHT22;38624;53.242;6.974;2023-04-03T00:40:22;2.20;99.90
52731;DHT22;38624;53.242;6.974;2023-04-03T00:42:49;2.10;99.90
52731;DHT22;38624;53.242;6.974;2023-04-03T00:45:49;2.50;99.90
52731;DHT22;38624;53.242;6.974;2023-04-03T00:48:25;2.00;99.90
52731;DHT22;38624;53.242;6.974;2023-04-03T00:50:52;2.20;99.90
52731;DHT22;38624;53.242;6.974;2023-04-03T00:53:22;2.00;99.90
52731;DHT22;38624;53.242;6.974;2023-04-03T00:55:49;2.20;99.90
52731;DHT22;38624;53.242;6.974;2023-04-03T00:58:18;1.90;99.90
52731;DHT22;38624;53.242;6.974;2023-04-03T01:00:50;1.90;99.90
52731;DHT22;38624;53.242;6.974;2023-04-03T01:03:21;1.80;99.90
52731;DHT22;38624;53.242;6.974;2023-04-03T01:05:47;1.80;99.90
52731;DHT22;38624;53.242;6.974;2023-04-03T01:08:13;1.80;99.90
52731;DHT22;38624;53.242;6.974;2023-04-03T01:10:39;1.80;99.90
52731;DHT22;38624;53.242;6.974;2023-04-03T01:13:39;2.70;99.90
52731;DHT22;38624;53.242;6.974;2023-04-03T01:16:05;2.80;99.90
52731;DHT22;38624;53.242;6.974;2023-04-03T01:18:31;1.70;99.90
52731;DHT22;38624;53.242;6.974;2023-04-03T01:26:36;1.60;99.90
52731;DHT22;38624;53.242;6.974;2023-04-03T01:29:03;1.60;99.90
52731;DHT22;38624;53.242;6.974;2023-04-03T01:34:01;1.50;99.90
52731;DHT22;38624;53.242;6.974;2023-04-03T01:36:28;1.70;99.90
52731;DHT22;38624;53.242;6.974;2023-04-03T01:38:56;2.70;99.90
52731;DHT22;38624;53.242;6.974;2023-04-03T01:41:22;1.40;99.90
52731;DHT22;38624;53.242;6.974;2023-04-03T01:43:48;1.40;99.90
52731;DHT22;38624;53.242;6.974;2023-04-03T01:46:15;1.30;99.90
52731;DHT22;38624;53.242;6.974;2023-04-03T01:48:41;1.30;99.90
52731;DHT22;38624;53.242;6.974;2023-04-03T01:51:07;1.20;99.90
52731;DHT22;38624;53.242;6.974;2023-04-03T01:53:32;1.20;99.90
52731;DHT22;38624;53.242;6.974;2023-04-03T01:55:58;1.20;99.90
52731;DHT22;38624;53.242;6.974;2023-04-03T01:58:24;1.20;99.90
52731;DHT22;38624;53.242;6.974;2023-04-03T02:00:51;1.60;99.90
52731;DHT22;38624;53.242;6.974;2023-04-03T02:03:17;1.10;99.90
52731;DHT22;38624;53.242;6.974;2023-04-03T02:05:42;1.10;99.90
52731;DHT22;38624;53.242;6.974;2023-04-03T02:08:08;1.70;99.90
52731;DHT22;38624;53.242;6.974;2023-04-03T02:10:34;1.00;99.90
52731;DHT22;38624;53.242;6.974;2023-04-03T02:13:00;1.00;99.90
52731;DHT22;38624;53.242;6.974;2023-04-03T02:15:25;1.00;99.90
52731;DHT22;38624;53.242;6.974;2023-04-03T02:17:51;0.90;99.90
52731;DHT22;38624;53.242;6.974;2023-04-03T02:20:17;1.70;99.90
52731;DHT22;38624;53.242;6.974;2023-04-03T02:22:43;0.90;99.90
52731;DHT22;38624;53.242;6.974;2023-04-03T02:25:09;1.10;99.90
52731;DHT22;38624;53.242;6.974;2023-04-03T02:27:35;1.80;99.90
52731;DHT22;38624;53.242;6.974;2023-04-03T02:30:02;0.80;99.90
52731;DHT22;38624;53.242;6.974;2023-04-03T02:32:28;0.80;99.90
52731;DHT22;38624;53.242;6.974;2023-04-03T02:34:55;0.80;99.90
52731;DHT22;38624;53.242;6.974;2023-04-03T02:37:20;1.50;99.90
52731;DHT22;38624;53.242;6.974;2023-04-03T02:39:46;0.70;99.90
52731;DHT22;38624;53.242;6.974;2023-04-03T02:42:12;0.60;99.90
52731;DHT22;38624;53.242;6.974;2023-04-03T02:44:38;0.60;99.90
52731;DHT22;38624;53.242;6.974;2023-04-03T02:47:04;0.70;99.90
52731;DHT22;38624;53.242;6.974;2023-04-03T02:49:31;0.50;99.90
52731;DHT22;38624;53.242;6.974;2023-04-03T02:51:56;0.70;99.90
52731;DHT22;38624;53.242;6.974;2023-04-03T02:54:22;1.20;99.90
52731;DHT22;38624;53.242;6.974;2023-04-03T02:56:49;0.40;99.90
52731;DHT22;38624;53.242;6.974;2023-04-03T02:59:15;0.50;99.90
52731;DHT22;38624;53.242;6.974;2023-04-03T03:01:40;0.30;99.90
52731;DHT22;38624;53.242;6.974;2023-04-03T03:04:06;0.40;99.90
52731;DHT22;38624;53.242;6.974;2023-04-03T03:06:32;1.50;99.90
52731;DHT22;38624;53.242;6.974;2023-04-03T03:08:58;0.30;99.90
52731;DHT22;38624;53.242;6.974;2023-04-03T03:11:23;0.30;99.90
52731;DHT22;38624;53.242;6.974;2023-04-03T03:13:49;0.20;99.90
52731;DHT22;38624;53.242;6.974;2023-04-03T03:16:15;0.20;99.90
52731;DHT22;38624;53.242;6.974;2023-04-03T03:18:41;0.20;99.90
52731;DHT22;38624;53.242;6.974;2023-04-03T03:21:06;0.20;99.90
52731;DHT22;38624;53.242;6.974;2023-04-03T03:23:32;1.00;99.90
52731;DHT22;38624;53.242;6.974;2023-04-03T03:26:05;0.40;99.90
52731;DHT22;38624;53.242;6.974;2023-04-03T03:28:31;0.10;99.90
52731;DHT22;38624;53.242;6.974;2023-04-03T03:31:00;0.20;99.90
52731;DHT22;38624;53.242;6.974;2023-04-03T03:33:26;0.10;99.90
52731;DHT22;38624;53.242;6.974;2023-04-03T03:35:53;0.00;99.90
52731;DHT22;38624;53.242;6.974;2023-04-03T03:38:19;0.60;99.90
52731;DHT22;38624;53.242;6.974;2023-04-03T03:40:47;0.00;99.90
52731;DHT22;38624;53.242;6.974;2023-04-03T03:43:13;1.30;99.90
52731;DHT22;38624;53.242;6.974;2023-04-03T03:45:38;0.00;99.90
52731;DHT22;38624;53.242;6.974;2023-04-03T03:48:04;0.00;99.90
52731;DHT22;38624;53.242;6.974;2023-04-03T03:50:30;0.00;99.90
52731;DHT22;38624;53.242;6.974;2023-04-03T03:52:55;-0.10;99.90
52731;DHT22;38624;53.242;6.974;2023-04-03T03:55:21;0.10;99.90
52731;DHT22;38624;53.242;6.974;2023-04-03T03:57:47;-0.10;99.90
52731;DHT22;38624;53.242;6.974;2023-04-03T04:00:13;-0.10;99.90
52731;DHT22;38624;53.242;6.974;2023-04-03T04:02:39;-0.10;99.90
52731;DHT22;38624;53.242;6.974;2023-04-03T04:05:05;-0.20;99.90
52731;DHT22;38624;53.242;6.974;2023-04-03T04:07:30;-0.20;99.90
52731;DHT22;38624;53.242;6.974;2023-04-03T04:09:56;1.10;99.90
52731;DHT22;38624;53.242;6.974;2023-04-03T04:12:22;-0.20;99.90
52731;DHT22;38624;53.242;6.974;2023-04-03T04:14:47;0.80;99.90
52731;DHT22;38624;53.242;6.974;2023-04-03T04:17:14;0.10;99.90
52731;DHT22;38624;53.242;6.974;2023-04-03T04:19:40;0.80;99.90
52731;DHT22;38624;53.242;6.974;2023-04-03T04:22:05;-0.30;99.90
52731;DHT22;38624;53.242;6.974;2023-04-03T04:24:31;-0.40;99.90
52731;DHT22;38624;53.242;6.974;2023-04-03T04:26:57;-0.30;99.90
52731;DHT22;38624;53.242;6.974;2023-04-03T04:29:23;-0.30;99.90
52731;DHT22;38624;53.242;6.974;2023-04-03T04:31:48;-0.40;99.90
52731;DHT22;38624;53.242;6.974;2023-04-03T04:34:14;-0.40;99.90
52731;DHT22;38624;53.242;6.974;2023-04-03T04:36:40;1.00;99.90
52731;DHT22;38624;53.242;6.974;2023-04-03T04:39:06;-0.40;99.90
52731;DHT22;38624;53.242;6.974;2023-04-03T04:41:32;-0.10;99.90
52731;DHT22;38624;53.242;6.974;2023-04-03T04:43:58;-0.40;99.90
52731;DHT22;38624;53.242;6.974;2023-04-03T04:46:24;-0.40;99.90
52731;DHT22;38624;53.242;6.974;2023-04-03T04:48:50;-0.40;99.90
52731;DHT22;38624;53.242;6.974;2023-04-03T04:51:16;-0.40;99.90
52731;DHT22;38624;53.242;6.974;2023-04-03T04:53:41;-0.40;99.90
52731;DHT22;38624;53.242;6.974;2023-04-03T04:56:08;0.10;99.90
52731;DHT22;38624;53.242;6.974;2023-04-03T04:58:34;-0.40;99.90
52731;DHT22;38624;53.242;6.974;2023-04-03T05:01:04;0.80;99.90
52731;DHT22;38624;53.242;6.974;2023-04-03T05:03:30;-0.50;99.90
52731;DHT22;38624;53.242;6.974;2023-04-03T05:05:56;-0.50;99.90
52731;DHT22;38624;53.242;6.974;2023-04-03T05:08:21;-0.50;99.90
52731;DHT22;38624;53.242;6.974;2023-04-03T05:10:48;-0.50;99.90
52731;DHT22;38624;53.242;6.974;2023-04-03T05:13:14;-0.50;99.90
52731;DHT22;38624;53.242;6.974;2023-04-03T05:15:40;-0.30;99.90
52731;DHT22;38624;53.242;6.974;2023-04-03T05:18:06;-0.50;99.90
52731;DHT22;38624;53.242;6.974;2023-04-03T05:20:33;-0.50;99.90
52731;DHT22;38624;53.242;6.974;2023-04-03T05:22:58;-0.50;99.90
52731;DHT22;38624;53.242;6.974;2023-04-03T05:25:24;0.20;99.90
52731;DHT22;38624;53.242;6.974;2023-04-03T05:27:50;-0.50;99.90
52731;DHT22;38624;53.242;6.974;2023-04-03T05:30:16;0.10;99.90
52731;DHT22;38624;53.242;6.974;2023-04-03T05:32:43;-0.50;99.90
52731;DHT22;38624;53.242;6.974;2023-04-03T05:35:09;-0.50;99.90
52731;DHT22;38624;53.242;6.974;2023-04-03T05:37:35;0.00;99.90
52731;DHT22;38624;53.242;6.974;2023-04-03T05:40:05;1.00;99.90
52731;DHT22;38624;53.242;6.974;2023-04-03T05:42:31;-0.30;99.90
52731;DHT22;38624;53.242;6.974;2023-04-03T05:44:57;0.80;99.90
52731;DHT22;38624;53.242;6.974;2023-04-03T05:47:23;0.60;99.90
52731;DHT22;38624;53.242;6.974;2023-04-03T05:49:49;-0.20;99.90
52731;DHT22;38624;53.242;6.974;2023-04-03T05:52:27;-0.20;99.90
52731;DHT22;38624;53.242;6.974;2023-04-03T05:54:53;0.80;99.90
52731;DHT22;38624;53.242;6.974;2023-04-03T05:57:19;-0.10;99.90
52731;DHT22;38624;53.242;6.974;2023-04-03T05:59:46;0.00;99.90
52731;DHT22;38624;53.242;6.974;2023-04-03T06:02:14;0.00;99.90
52731;DHT22;38624;53.242;6.974;2023-04-03T06:04:40;0.60;99.90
52731;DHT22;38624;53.242;6.974;2023-04-03T06:07:08;1.10;99.90
52731;DHT22;38624;53.242;6.974;2023-04-03T06:09:35;0.50;99.90
52731;DHT22;38624;53.242;6.974;2023-04-03T06:12:01;0.20;99.90
52731;DHT22;38624;53.242;6.974;2023-04-03T06:14:27;0.70;99.90
52731;DHT22;38624;53.242;6.974;2023-04-03T06:16:53;0.30;99.90
52731;DHT22;38624;53.242;6.974;2023-04-03T06:19:19;1.00;99.90
52731;DHT22;38624;53.242;6.974;2023-04-03T06:21:45;1.00;99.90
52731;DHT22;38624;53.242;6.974;2023-04-03T06:24:15;0.40;99.90
52731;DHT22;38624;53.242;6.974;2023-04-03T06:26:41;0.50;99.90
52731;DHT22;38624;53.242;6.974;2023-04-03T06:29:06;0.50;99.90
52731;DHT22;38624;53.242;6.974;2023-04-03T06:31:32;1.70;99.90
52731;DHT22;38624;53.242;6.974;2023-04-03T06:33:58;0.70;99.90
52731;DHT22;38624;53.242;6.974;2023-04-03T06:36:24;0.70;99.90
52731;DHT22;38624;53.242;6.974;2023-04-03T06:38:51;0.80;99.90
52731;DHT22;38624;53.242;6.974;2023-04-03T06:41:16;0.80;99.90
52731;DHT22;38624;53.242;6.974;2023-04-03T06:43:43;1.60;99.90
52731;DHT22;38624;53.242;6.974;2023-04-03T06:46:17;1.00;99.90
52731;DHT22;38624;53.242;6.974;2023-04-03T06:48:43;1.10;99.90
52731;DHT22;38624;53.242;6.974;2023-04-03T06:51:23;1.10;99.90
52731;DHT22;38624;53.242;6.974;2023-04-03T06:53:51;1.20;99.90
52731;DHT22;38624;53.242;6.974;2023-04-03T06:56:18;1.30;99.90
52731;DHT22;38624;53.242;6.974;2023-04-03T06:58:44;2.20;99.90
52731;DHT22;38624;53.242;6.974;2023-04-03T07:01:12;1.40;99.90
52731;DHT22;38624;53.242;6.974;2023-04-03T07:03:38;1.70;99.90
52731;DHT22;38624;53.242;6.974;2023-04-03T07:06:05;1.60;99.90
52731;DHT22;38624;53.242;6.974;2023-04-03T07:08:32;1.60;99.90
52731;DHT22;38624;53.242;6.974;2023-04-03T07:10:58;2.00;99.90
52731;DHT22;38624;53.242;6.974;2023-04-03T07:13:24;1.80;99.90
52731;DHT22;38624;53.242;6.974;2023-04-03T07:15:49;1.90;99.90
52731;DHT22;38624;53.242;6.974;2023-04-03T07:18:16;2.80;99.90
52731;DHT22;38624;53.242;6.974;2023-04-03T07:20:42;2.00;99.90
52731;DHT22;38624;53.242;6.974;2023-04-03T07:23:08;2.10;99.90
52731;DHT22;38624;53.242;6.974;2023-04-03T07:25:34;2.20;99.90
52731;DHT22;38624;53.242;6.974;2023-04-03T07:28:00;2.20;99.90
52731;DHT22;38624;53.242;6.974;2023-04-03T07:30:26;2.30;99.90
52731;DHT22;38624;53.242;6.974;2023-04-03T07:32:52;2.40;99.90
52731;DHT22;38624;53.242;6.974;2023-04-03T07:35:18;3.10;99.90
52731;DHT22;38624;53.242;6.974;2023-04-03T07:37:44;2.60;99.90
52731;DHT22;38624;53.242;6.974;2023-04-03T07:40:11;2.70;99.90
52731;DHT22;38624;53.242;6.974;2023-04-03T07:42:36;2.70;99.90
52731;DHT22;38624;53.242;6.974;2023-04-03T07:45:05;3.10;99.90
52731;DHT22;38624;53.242;6.974;2023-04-03T07:47:32;2.90;99.90
52731;DHT22;38624;53.242;6.974;2023-04-03T07:49:57;3.00;99.90
52731;DHT22;38624;53.242;6.974;2023-04-03T07:52:24;3.10;99.90
52731;DHT22;38624;53.242;6.974;2023-04-03T07:54:50;3.20;99.90
52731;DHT22;38624;53.242;6.974;2023-04-03T07:57:15;3.30;99.90
52731;DHT22;38624;53.242;6.974;2023-04-03T07:59:41;3.60;99.90
52731;DHT22;38624;53.242;6.974;2023-04-03T08:02:12;3.50;99.90
52731;DHT22;38624;53.242;6.974;2023-04-03T08:04:38;3.50;99.90
52731;DHT22;38624;53.242;6.974;2023-04-03T08:07:04;3.50;99.90
52731;DHT22;38624;53.242;6.974;2023-04-03T08:09:30;3.60;99.90
52731;DHT22;38624;53.242;6.974;2023-04-03T08:11:57;4.00;99.90
52731;DHT22;38624;53.242;6.974;2023-04-03T08:14:23;3.80;99.90
52731;DHT22;38624;53.242;6.974;2023-04-03T08:16:49;3.90;99.90
52731;DHT22;38624;53.242;6.974;2023-04-03T08:19:15;5.10;99.90
52731;DHT22;38624;53.242;6.974;2023-04-03T08:21:44;4.00;99.90
52731;DHT22;38624;53.242;6.974;2023-04-03T08:24:11;4.10;99.90
52731;DHT22;38624;53.242;6.974;2023-04-03T08:26:37;4.10;99.90
52731;DHT22;38624;53.242;6.974;2023-04-03T08:29:02;5.00;99.90
52731;DHT22;38624;53.242;6.974;2023-04-03T08:31:28;4.30;99.90
52731;DHT22;38624;53.242;6.974;2023-04-03T08:33:56;4.70;99.90
52731;DHT22;38624;53.242;6.974;2023-04-03T08:36:27;4.40;99.90
52731;DHT22;38624;53.242;6.974;2023-04-03T08:38:53;4.50;99.90
52731;DHT22;38624;53.242;6.974;2023-04-03T08:43:59;4.60;99.90
52731;DHT22;38624;53.242;6.974;2023-04-03T08:49:35;4.70;99.90
52731;DHT22;38624;53.242;6.974;2023-04-03T08:52:08;4.80;99.90
52731;DHT22;38624;53.242;6.974;2023-04-03T08:54:57;4.80;99.90
52731;DHT22;38624;53.242;6.974;2023-04-03T08:59:57;5.50;99.90
52731;DHT22;38624;53.242;6.974;2023-04-03T09:02:54;5.00;99.90
52731;DHT22;38624;53.242;6.974;2023-04-03T09:10:41;5.50;99.90
52731;DHT22;38624;53.242;6.974;2023-04-03T09:13:29;5.50;99.90
52731;DHT22;38624;53.242;6.974;2023-04-03T09:15:57;5.20;99.90
52731;DHT22;38624;53.242;6.974;2023-04-03T09:18:31;5.30;99.90
52731;DHT22;38624;53.242;6.974;2023-04-03T09:21:08;5.40;99.90
52731;DHT22;38624;53.242;6.974;2023-04-03T09:23:46;5.50;99.90
52731;DHT22;38624;53.242;6.974;2023-04-03T09:29:22;5.70;99.90
52731;DHT22;38624;53.242;6.974;2023-04-03T09:31:50;5.70;99.90
52731;DHT22;38624;53.242;6.974;2023-04-03T09:34:20;6.50;99.90
52731;DHT22;38624;53.242;6.974;2023-04-03T09:42:03;5.90;99.90
52731;DHT22;38624;53.242;6.974;2023-04-03T09:44:39;5.90;99.90
52731;DHT22;38624;53.242;6.974;2023-04-03T09:47:30;6.10;99.90
52731;DHT22;38624;53.242;6.974;2023-04-03T09:52:40;6.40;99.90
52731;DHT22;38624;53.242;6.974;2023-04-03T09:55:27;6.20;99.90
52731;DHT22;38624;53.242;6.974;2023-04-03T09:57:59;6.20;99.90
52731;DHT22;38624;53.242;6.974;2023-04-03T10:00:28;6.20;99.90
52731;DHT22;38624;53.242;6.974;2023-04-03T10:02:57;6.30;99.90
52731;DHT22;38624;53.242;6.974;2023-04-03T10:07:51;6.40;99.90
52731;DHT22;38624;53.242;6.974;2023-04-03T10:10:22;6.60;99.90
52731;DHT22;38624;53.242;6.974;2023-04-03T10:13:14;6.60;99.90
52731;DHT22;38624;53.242;6.974;2023-04-03T10:15:55;6.50;99.90
52731;DHT22;38624;53.242;6.974;2023-04-03T10:20:56;6.50;99.90
52731;DHT22;38624;53.242;6.974;2023-04-03T10:23:31;6.60;99.90
52731;DHT22;38624;53.242;6.974;2023-04-03T10:26:22;6.80;99.90
52731;DHT22;38624;53.242;6.974;2023-04-03T10:34:39;6.90;99.90
52731;DHT22;38624;53.242;6.974;2023-04-03T10:37:22;6.90;99.90
52731;DHT22;38624;53.242;6.974;2023-04-03T10:40:29;6.90;99.90
52731;DHT22;38624;53.242;6.974;2023-04-03T10:43:31;7.00;99.90
52731;DHT22;38624;53.242;6.974;2023-04-03T10:46:14;7.00;99.90
52731;DHT22;38624;53.242;6.974;2023-04-03T10:48:58;7.10;99.90
52731;DHT22;38624;53.242;6.974;2023-04-03T10:51:31;7.30;99.90
52731;DHT22;38624;53.242;6.974;2023-04-03T10:54:28;9.50;99.90
52731;DHT22;38624;53.242;6.974;2023-04-03T10:57:01;12.60;99.90
52731;DHT22;38624;53.242;6.974;2023-04-03T10:59:45;15.10;99.90
52731;DHT22;38624;53.242;6.974;2023-04-03T11:02:32;17.30;98.40
52731;DHT22;38624;53.242;6.974;2023-04-03T11:05:28;19.30;93.10
52731;DHT22;38624;53.242;6.974;2023-04-03T11:07:52;20.60;90.40
52731;DHT22;38624;53.242;6.974;2023-04-03T11:10:40;21.20;82.20
52731;DHT22;38624;53.242;6.974;2023-04-03T11:15:57;23.50;57.90
52731;DHT22;38624;53.242;6.974;2023-04-03T11:18:31;24.50;65.90
52731;DHT22;38624;53.242;6.974;2023-04-03T11:21:22;25.30;57.30
52731;DHT22;38624;53.242;6.974;2023-04-03T11:23:53;26.10;58.40
52731;DHT22;38624;53.242;6.974;2023-04-03T11:26:24;27.10;59.00
52731;DHT22;38624;53.242;6.974;2023-04-03T11:29:12;27.10;57.20
52731;DHT22;38624;53.242;6.974;2023-04-03T11:32:09;27.20;48.40
52731;DHT22;38624;53.242;6.974;2023-04-03T11:34:47;27.80;53.80
52731;DHT22;38624;53.242;6.974;2023-04-03T11:37:38;28.50;55.10
52731;DHT22;38624;53.242;6.974;2023-04-03T11:40:08;28.70;46.60
52731;DHT22;38624;53.242;6.974;2023-04-03T11:42:49;28.20;47.60
52731;DHT22;38624;53.242;6.974;2023-04-03T11:48:04;29.00;45.60
52731;DHT22;38624;53.242;6.974;2023-04-03T11:50:42;29.60;44.20
52731;DHT22;38624;53.242;6.974;2023-04-03T11:58:23;31.00;39.80
52731;DHT22;38624;53.242;6.974;2023-04-03T12:00:52;31.30;45.00
52731;DHT22;38624;53.242;6.974;2023-04-03T12:21:15;32.70;40.50
52731;DHT22;38624;53.242;6.974;2023-04-03T12:26:46;32.50;35.30
52731;DHT22;38624;53.242;6.974;2023-04-03T12:40:10;33.10;37.80
52731;DHT22;38624;53.242;6.974;2023-04-03T12:45:21;32.60;36.50
52731;DHT22;38624;53.242;6.974;2023-04-03T12:47:55;32.80;38.40
52731;DHT22;38624;53.242;6.974;2023-04-03T12:50:28;32.90;36.20
52731;DHT22;38624;53.242;6.974;2023-04-03T12:55:29;33.20;35.30
52731;DHT22;38624;53.242;6.974;2023-04-03T12:57:55;33.60;36.70
52731;DHT22;38624;53.242;6.974;2023-04-03T13:00:25;33.90;36.80
52731;DHT22;38624;53.242;6.974;2023-04-03T13:02:52;33.70;35.80
52731;DHT22;38624;53.242;6.974;2023-04-03T13:05:19;33.80;35.80
52731;DHT22;38624;53.242;6.974;2023-04-03T13:08:09;33.90;35.80
52731;DHT22;38624;53.242;6.974;2023-04-03T13:10:55;34.20;32.80
52731;DHT22;38624;53.242;6.974;2023-04-03T13:13:21;33.90;33.20
52731;DHT22;38624;53.242;6.974;2023-04-03T13:15:49;33.60;35.90
52731;DHT22;38624;53.242;6.974;2023-04-03T13:18:31;33.70;35.30
52731;DHT22;38624;53.242;6.974;2023-04-03T13:21:22;34.10;34.20
52731;DHT22;38624;53.242;6.974;2023-04-03T13:23:49;34.20;35.30
52731;DHT22;38624;53.242;6.974;2023-04-03T13:26:17;34.30;36.00
52731;DHT22;38624;53.242;6.974;2023-04-03T13:28:44;33.80;34.50
52731;DHT22;38624;53.242;6.974;2023-04-03T13:34:05;33.70;35.00
52731;DHT22;38624;53.242;6.974;2023-04-03T13:36:50;33.40;34.90
52731;DHT22;38624;53.242;6.974;2023-04-03T13:39:22;33.70;33.60
52731;DHT22;38624;53.242;6.974;2023-04-03T13:41:50;33.50;34.50
52731;DHT22;38624;53.242;6.974;2023-04-03T13:49:39;32.70;32.90
52731;DHT22;38624;53.242;6.974;2023-04-03T13:52:41;32.90;34.00
52731;DHT22;38624;53.242;6.974;2023-04-03T13:55:31;33.00;32.10
52731;DHT22;38624;53.242;6.974;2023-04-03T14:01:17;33.00;34.10
52731;DHT22;38624;53.242;6.974;2023-04-03T14:03:47;32.90;31.40
52731;DHT22;38624;53.242;6.974;2023-04-03T14:06:17;32.50;30.20
52731;DHT22;38624;53.242;6.974;2023-04-03T14:08:44;32.60;34.70
52731;DHT22;38624;53.242;6.974;2023-04-03T14:11:26;32.60;34.20
52731;DHT22;38624;53.242;6.974;2023-04-03T14:13:53;33.00;34.60
52731;DHT22;38624;53.242;6.974;2023-04-03T14:16:23;32.40;34.20
52731;DHT22;38624;53.242;6.974;2023-04-03T14:18:51;31.80;33.20
52731;DHT22;38624;53.242;6.974;2023-04-03T14:21:19;31.90;33.30
52731;DHT22;38624;53.242;6.974;2023-04-03T14:23:45;30.30;32.60
52731;DHT22;38624;53.242;6.974;2023-04-03T14:26:19;30.90;35.50
52731;DHT22;38624;53.242;6.974;2023-04-03T14:28:48;30.50;35.00
52731;DHT22;38624;53.242;6.974;2023-04-03T14:31:16;29.80;34.90
52731;DHT22;38624;53.242;6.974;2023-04-03T14:33:42;29.60;35.30
52731;DHT22;38624;53.242;6.974;2023-04-03T14:36:27;29.40;35.10
52731;DHT22;38624;53.242;6.974;2023-04-03T14:38:54;28.90;33.60
52731;DHT22;38624;53.242;6.974;2023-04-03T14:41:23;28.40;36.60
52731;DHT22;38624;53.242;6.974;2023-04-03T14:43:50;28.60;34.80
52731;DHT22;38624;53.242;6.974;2023-04-03T14:46:25;28.50;35.20
52731;DHT22;38624;53.242;6.974;2023-04-03T14:48:52;28.00;34.70
52731;DHT22;38624;53.242;6.974;2023-04-03T14:51:17;28.10;36.20
52731;DHT22;38624;53.242;6.974;2023-04-03T14:53:44;28.40;37.30
52731;DHT22;38624;53.242;6.974;2023-04-03T14:56:23;28.20;35.80
52731;DHT22;38624;53.242;6.974;2023-04-03T14:58:55;28.30;34.70
52731;DHT22;38624;53.242;6.974;2023-04-03T15:01:21;28.10;36.60
52731;DHT22;38624;53.242;6.974;2023-04-03T15:03:47;28.30;36.30
52731;DHT22;38624;53.242;6.974;2023-04-03T15:06:13;28.30;36.30
52731;DHT22;38624;53.242;6.974;2023-04-03T15:08:40;28.60;37.20
52731;DHT22;38624;53.242;6.974;2023-04-03T15:11:08;28.40;35.60
52731;DHT22;38624;53.242;6.974;2023-04-03T15:13:33;28.50;35.60
52731;DHT22;38624;53.242;6.974;2023-04-03T15:15:59;28.50;36.00
52731;DHT22;38624;53.242;6.974;2023-04-03T15:18:27;28.50;37.60
52731;DHT22;38624;53.242;6.974;2023-04-03T15:20:54;28.60;36.10
52731;DHT22;38624;53.242;6.974;2023-04-03T15:23:21;28.70;35.40
52731;DHT22;38624;53.242;6.974;2023-04-03T15:25:51;28.30;36.70
52731;DHT22;38624;53.242;6.974;2023-04-03T15:28:37;28.60;36.00
52731;DHT22;38624;53.242;6.974;2023-04-03T15:31:03;28.70;34.80
52731;DHT22;38624;53.242;6.974;2023-04-03T15:33:29;28.40;36.00
52731;DHT22;38624;53.242;6.974;2023-04-03T15:35:55;28.60;36.50
52731;DHT22;38624;53.242;6.974;2023-04-03T15:38:21;28.40;35.10
52731;DHT22;38624;53.242;6.974;2023-04-03T15:40:47;28.40;35.70
52731;DHT22;38624;53.242;6.974;2023-04-03T15:43:13;28.30;34.90
52731;DHT22;38624;53.242;6.974;2023-04-03T15:45:40;28.30;35.10
52731;DHT22;38624;53.242;6.974;2023-04-03T15:48:06;28.50;36.20
52731;DHT22;38624;53.242;6.974;2023-04-03T15:50:33;28.60;36.10
52731;DHT22;38624;53.242;6.974;2023-04-03T15:52:59;28.70;37.30
52731;DHT22;38624;53.242;6.974;2023-04-03T15:55:28;28.50;36.30
52731;DHT22;38624;53.242;6.974;2023-04-03T15:57:55;27.80;36.10
52731;DHT22;38624;53.242;6.974;2023-04-03T16:00:22;27.80;37.80
52731;DHT22;38624;53.242;6.974;2023-04-03T16:02:53;27.60;37.70
52731;DHT22;38624;53.242;6.974;2023-04-03T16:05:20;27.10;35.70
52731;DHT22;38624;53.242;6.974;2023-04-03T16:07:46;27.00;37.60
52731;DHT22;38624;53.242;6.974;2023-04-03T16:10:15;26.80;38.00
52731;DHT22;38624;53.242;6.974;2023-04-03T16:12:41;26.70;37.10
52731;DHT22;38624;53.242;6.974;2023-04-03T16:15:07;26.60;39.00
52731;DHT22;38624;53.242;6.974;2023-04-03T16:17:34;26.30;38.00
52731;DHT22;38624;53.242;6.974;2023-04-03T16:20:00;25.70;38.50
52731;DHT22;38624;53.242;6.974;2023-04-03T16:22:27;25.40;39.30
52731;DHT22;38624;53.242;6.974;2023-04-03T16:24:54;24.90;40.50
52731;DHT22;38624;53.242;6.974;2023-04-03T16:27:20;24.70;41.00
52731;DHT22;38624;53.242;6.974;2023-04-03T16:29:46;24.10;40.30
52731;DHT22;38624;53.242;6.974;2023-04-03T16:32:12;23.20;41.80
52731;DHT22;38624;53.242;6.974;2023-04-03T16:34:38;22.60;44.60
52731;DHT22;38624;53.242;6.974;2023-04-03T16:37:06;21.80;43.30
52731;DHT22;38624;53.242;6.974;2023-04-03T16:39:34;21.30;42.70
52731;DHT22;38624;53.242;6.974;2023-04-03T16:42:00;21.00;42.80
52731;DHT22;38624;53.242;6.974;2023-04-03T16:44:26;20.60;43.40
52731;DHT22;38624;53.242;6.974;2023-04-03T16:46:52;20.10;45.10
52731;DHT22;38624;53.242;6.974;2023-04-03T16:49:18;19.70;45.20
52731;DHT22;38624;53.242;6.974;2023-04-03T16:51:44;19.30;46.70
52731;DHT22;38624;53.242;6.974;2023-04-03T16:54:10;18.70;46.50
52731;DHT22;38624;53.242;6.974;2023-04-03T16:56:39;18.10;49.30
52731;DHT22;38624;53.242;6.974;2023-04-03T16:59:05;17.30;49.20
52731;DHT22;38624;53.242;6.974;2023-04-03T17:01:31;16.80;48.80
52731;DHT22;38624;53.242;6.974;2023-04-03T17:03:56;16.60;50.40
52731;DHT22;38624;53.242;6.974;2023-04-03T17:06:22;16.20;50.10
52731;DHT22;38624;53.242;6.974;2023-04-03T17:08:51;15.90;49.60
52731;DHT22;38624;53.242;6.974;2023-04-03T17:11:18;16.00;50.70
52731;DHT22;38624;53.242;6.974;2023-04-03T17:13:44;15.70;52.00
52731;DHT22;38624;53.242;6.974;2023-04-03T17:16:13;15.40;52.30
52731;DHT22;38624;53.242;6.974;2023-04-03T17:18:40;15.00;51.10
52731;DHT22;38624;53.242;6.974;2023-04-03T17:21:06;14.40;54.40
52731;DHT22;38624;53.242;6.974;2023-04-03T17:23:33;14.10;56.50
52731;DHT22;38624;53.242;6.974;2023-04-03T17:26:01;13.80;57.50
52731;DHT22;38624;53.242;6.974;2023-04-03T17:28:26;13.70;56.50
52731;DHT22;38624;53.242;6.974;2023-04-03T17:30:59;13.20;52.60
52731;DHT22;38624;53.242;6.974;2023-04-03T17:33:26;13.00;57.80
52731;DHT22;38624;53.242;6.974;2023-04-03T17:35:55;12.70;58.20